sensor_id;sensor_type;location;lat;lon;timestamp;temperature;humidity
65203;HTU21D;51788;45.124;38.966;2022-12-18T00:00:45;10.49;79.55
65203;HTU21D;51788;45.124;38.966;2022-12-18T00:03:13;10.43;79.68
65203;HTU21D;51788;45.124;38.966;2022-12-18T00:05:50;10.38;79.80
65203;HTU21D;51788;45.124;38.966;2022-12-18T00:08:16;10.33;79.85
65203;HTU21D;51788;45.124;38.966;2022-12-18T00:10:43;10.28;79.95
65203;HTU21D;51788;45.124;38.966;2022-12-18T00:13:09;10.20;80.03
65203;HTU21D;51788;45.124;38.966;2022-12-18T00:15:36;10.13;80.11
65203;HTU21D;51788;45.124;38.966;2022-12-18T00:18:03;10.03;80.26
65203;HTU21D;51788;45.124;38.966;2022-12-18T00:20:30;9.90;80.53
65203;HTU21D;51788;45.124;38.966;2022-12-18T00:22:56;9.81;80.78
65203;HTU21D;51788;45.124;38.966;2022-12-18T00:25:22;9.76;80.85
65203;HTU21D;51788;45.124;38.966;2022-12-18T00:27:49;9.69;80.91
65203;HTU21D;51788;45.124;38.966;2022-12-18T00:30:15;9.64;80.93
65203;HTU21D;51788;45.124;38.966;2022-12-18T00:32:40;9.59;80.94
65203;HTU21D;51788;45.124;38.966;2022-12-18T00:35:07;9.53;81.01
65203;HTU21D;51788;45.124;38.966;2022-12-18T00:37:34;9.46;81.19
65203;HTU21D;51788;45.124;38.966;2022-12-18T00:40:00;9.45;81.24
65203;HTU21D;51788;45.124;38.966;2022-12-18T00:42:27;9.41;81.25
65203;HTU21D;51788;45.124;38.966;2022-12-18T00:45:28;9.36;81.25
65203;HTU21D;51788;45.124;38.966;2022-12-18T00:47:55;9.32;81.30
65203;HTU21D;51788;45.124;38.966;2022-12-18T00:50:22;9.25;81.41
65203;HTU21D;51788;45.124;38.966;2022-12-18T00:52:48;9.23;81.42
65203;HTU21D;51788;45.124;38.966;2022-12-18T00:55:15;9.20;81.46
65203;HTU21D;51788;45.124;38.966;2022-12-18T00:57:41;9.18;81.55
65203;HTU21D;51788;45.124;38.966;2022-12-18T01:00:10;9.20;81.78
65203;HTU21D;51788;45.124;38.966;2022-12-18T01:02:36;9.21;81.75
65203;HTU21D;51788;45.124;38.966;2022-12-18T01:05:02;9.21;81.79
65203;HTU21D;51788;45.124;38.966;2022-12-18T01:07:28;9.18;81.88
65203;HTU21D;51788;45.124;38.966;2022-12-18T01:09:54;9.20;82.04
65203;HTU21D;51788;45.124;38.966;2022-12-18T01:12:20;9.19;82.05
65203;HTU21D;51788;45.124;38.966;2022-12-18T01:14:49;9.17;82.09
65203;HTU21D;51788;45.124;38.966;2022-12-18T01:17:15;9.16;82.12
65203;HTU21D;51788;45.124;38.966;2022-12-18T01:19:41;9.15;82.12
65203;HTU21D;51788;45.124;38.966;2022-12-18T01:22:09;9.15;82.16
65203;HTU21D;51788;45.124;38.966;2022-12-18T01:24:35;9.10;82.23
65203;HTU21D;51788;45.124;38.966;2022-12-18T01:27:01;9.06;82.36
65203;HTU21D;51788;45.124;38.966;2022-12-18T01:29:27;9.05;82.48
65203;HTU21D;51788;45.124;38.966;2022-12-18T01:31:55;9.07;82.61
65203;HTU21D;51788;45.124;38.966;2022-12-18T01:34:22;9.17;82.38
65203;HTU21D;51788;45.124;38.966;2022-12-18T01:36:48;9.25;82.29
65203;HTU21D;51788;45.124;38.966;2022-12-18T01:39:14;9.29;82.17
65203;HTU21D;51788;45.124;38.966;2022-12-18T01:41:42;9.37;82.07
65203;HTU21D;51788;45.124;38.966;2022-12-18T01:50:00;9.41;82.00
65203;HTU21D;51788;45.124;38.966;2022-12-18T01:52:29;9.37;82.11
65203;HTU21D;51788;45.124;38.966;2022-12-18T01:54:57;9.33;82.23
65203;HTU21D;51788;45.124;38.966;2022-12-18T01:57:26;9.29;82.34
65203;HTU21D;51788;45.124;38.966;2022-12-18T01:59:54;9.27;82.38
65203;HTU21D;51788;45.124;38.966;2022-12-18T02:02:22;9.24;82.33
65203;HTU21D;51788;45.124;38.966;2022-12-18T02:04:48;9.21;82.32
65203;HTU21D;51788;45.124;38.966;2022-12-18T02:10:07;9.19;82.47
65203;HTU21D;51788;45.124;38.966;2022-12-18T02:12:48;9.21;82.36
65203;HTU21D;51788;45.124;38.966;2022-12-18T02:18:21;9.22;82.45
65203;HTU21D;51788;45.124;38.966;2022-12-18T02:21:07;9.29;82.32
65203;HTU21D;51788;45.124;38.966;2022-12-18T02:28:42;9.44;82.14
65203;HTU21D;51788;45.124;38.966;2022-12-18T02:31:13;9.50;81.98
65203;HTU21D;51788;45.124;38.966;2022-12-18T02:33:41;9.52;81.96
65203;HTU21D;51788;45.124;38.966;2022-12-18T02:36:10;9.52;82.02
65203;HTU21D;51788;45.124;38.966;2022-12-18T02:38:37;9.54;82.04
65203;HTU21D;51788;45.124;38.966;2022-12-18T02:41:10;9.63;82.05
65203;HTU21D;51788;45.124;38.966;2022-12-18T02:43:38;9.78;81.90
65203;HTU21D;51788;45.124;38.966;2022-12-18T02:46:42;10.09;81.43
65203;HTU21D;51788;45.124;38.966;2022-12-18T02:58:00;11.20;79.65
65203;HTU21D;51788;45.124;38.966;2022-12-18T03:00:40;11.41;79.27
65203;HTU21D;51788;45.124;38.966;2022-12-18T03:06:32;11.83;78.56
65203;HTU21D;51788;45.124;38.966;2022-12-18T03:09:02;11.93;78.18
65203;HTU21D;51788;45.124;38.966;2022-12-18T03:11:33;11.97;78.01
65203;HTU21D;51788;45.124;38.966;2022-12-18T03:14:20;12.01;77.72
65203;HTU21D;51788;45.124;38.966;2022-12-18T03:16:54;12.05;77.76
65203;HTU21D;51788;45.124;38.966;2022-12-18T03:19:25;12.16;77.55
65203;HTU21D;51788;45.124;38.966;2022-12-18T03:21:54;12.21;77.46
65203;HTU21D;51788;45.124;38.966;2022-12-18T03:24:25;12.23;77.35
65203;HTU21D;51788;45.124;38.966;2022-12-18T03:26:58;12.28;77.32
65203;HTU21D;51788;45.124;38.966;2022-12-18T03:29:45;12.33;76.99
65203;HTU21D;51788;45.124;38.966;2022-12-18T03:32:36;12.46;76.63
65203;HTU21D;51788;45.124;38.966;2022-12-18T03:35:05;12.61;76.38
65203;HTU21D;51788;45.124;38.966;2022-12-18T03:37:36;12.69;76.15
65203;HTU21D;51788;45.124;38.966;2022-12-18T03:40:03;12.76;75.99
65203;HTU21D;51788;45.124;38.966;2022-12-18T03:42:54;12.84;74.87
65203;HTU21D;51788;45.124;38.966;2022-12-18T03:45:37;12.87;74.89
65203;HTU21D;51788;45.124;38.966;2022-12-18T03:48:19;12.84;74.85
65203;HTU21D;51788;45.124;38.966;2022-12-18T03:51:06;12.73;75.09
65203;HTU21D;51788;45.124;38.966;2022-12-18T03:53:43;12.64;75.56
65203;HTU21D;51788;45.124;38.966;2022-12-18T03:56:13;12.71;75.46
65203;HTU21D;51788;45.124;38.966;2022-12-18T03:58:42;12.84;74.96
65203;HTU21D;51788;45.124;38.966;2022-12-18T04:01:28;13.06;74.30
65203;HTU21D;51788;45.124;38.966;2022-12-18T04:03:59;13.22;73.75
65203;HTU21D;51788;45.124;38.966;2022-12-18T04:06:26;13.30;73.12
65203;HTU21D;51788;45.124;38.966;2022-12-18T04:08:53;13.33;73.10
65203;HTU21D;51788;45.124;38.966;2022-12-18T04:11:22;13.34;73.12
65203;HTU21D;51788;45.124;38.966;2022-12-18T04:13:48;13.32;72.90
65203;HTU21D;51788;45.124;38.966;2022-12-18T04:16:20;13.33;73.03
65203;HTU21D;51788;45.124;38.966;2022-12-18T04:18:50;13.35;72.46
65203;HTU21D;51788;45.124;38.966;2022-12-18T04:21:18;13.35;72.55
65203;HTU21D;51788;45.124;38.966;2022-12-18T04:23:46;13.38;72.35
65203;HTU21D;51788;45.124;38.966;2022-12-18T04:26:12;13.36;72.22
65203;HTU21D;51788;45.124;38.966;2022-12-18T04:28:46;13.38;71.87
65203;HTU21D;51788;45.124;38.966;2022-12-18T04:31:14;13.47;71.74
65203;HTU21D;51788;45.124;38.966;2022-12-18T04:33:40;13.55;71.54
65203;HTU21D;51788;45.124;38.966;2022-12-18T04:36:07;13.58;71.29
65203;HTU21D;51788;45.124;38.966;2022-12-18T04:38:35;13.56;71.32
65203;HTU21D;51788;45.124;38.966;2022-12-18T04:41:06;13.55;71.20
65203;HTU21D;51788;45.124;38.966;2022-12-18T04:43:33;13.58;71.00
65203;HTU21D;51788;45.124;38.966;2022-12-18T04:46:07;13.64;71.06
65203;HTU21D;51788;45.124;38.966;2022-12-18T04:48:34;13.70;70.61
65203;HTU21D;51788;45.124;38.966;2022-12-18T04:51:00;13.69;70.63
65203;HTU21D;51788;45.124;38.966;2022-12-18T04:53:27;13.67;70.63
65203;HTU21D;51788;45.124;38.966;2022-12-18T04:58:29;13.71;70.49
65203;HTU21D;51788;45.124;38.966;2022-12-18T05:00:55;13.73;70.43
65203;HTU21D;51788;45.124;38.966;2022-12-18T05:03:21;13.76;70.35
65203;HTU21D;51788;45.124;38.966;2022-12-18T05:05:50;13.80;70.25
65203;HTU21D;51788;45.124;38.966;2022-12-18T05:08:16;13.81;70.08
65203;HTU21D;51788;45.124;38.966;2022-12-18T05:10:42;13.83;70.07
65203;HTU21D;51788;45.124;38.966;2022-12-18T05:13:08;13.85;69.94
65203;HTU21D;51788;45.124;38.966;2022-12-18T05:15:34;13.90;69.68
65203;HTU21D;51788;45.124;38.966;2022-12-18T05:18:01;13.97;69.49
65203;HTU21D;51788;45.124;38.966;2022-12-18T05:20:27;14.00;69.21
65203;HTU21D;51788;45.124;38.966;2022-12-18T05:22:54;14.03;69.33
65203;HTU21D;51788;45.124;38.966;2022-12-18T05:25:20;14.13;69.03
65203;HTU21D;51788;45.124;38.966;2022-12-18T05:27:47;14.14;69.19
65203;HTU21D;51788;45.124;38.966;2022-12-18T05:30:14;14.12;69.17
65203;HTU21D;51788;45.124;38.966;2022-12-18T05:32:41;14.17;69.17
65203;HTU21D;51788;45.124;38.966;2022-12-18T05:35:09;14.21;68.86
65203;HTU21D;51788;45.124;38.966;2022-12-18T05:37:35;14.26;68.42
65203;HTU21D;51788;45.124;38.966;2022-12-18T05:40:03;14.34;68.26
65203;HTU21D;51788;45.124;38.966;2022-12-18T05:42:29;14.38;67.98
65203;HTU21D;51788;45.124;38.966;2022-12-18T05:44:55;14.42;68.13
65203;HTU21D;51788;45.124;38.966;2022-12-18T05:47:21;14.52;67.31
65203;HTU21D;51788;45.124;38.966;2022-12-18T05:49:47;14.57;67.15
65203;HTU21D;51788;45.124;38.966;2022-12-18T05:52:13;14.58;66.89
65203;HTU21D;51788;45.124;38.966;2022-12-18T05:54:39;14.65;67.08
65203;HTU21D;51788;45.124;38.966;2022-12-18T05:57:05;14.66;66.95
65203;HTU21D;51788;45.124;38.966;2022-12-18T05:59:31;14.70;66.97
65203;HTU21D;51788;45.124;38.966;2022-12-18T06:01:57;14.83;66.59
65203;HTU21D;51788;45.124;38.966;2022-12-18T06:04:23;14.91;66.45
65203;HTU21D;51788;45.124;38.966;2022-12-18T06:06:49;14.97;66.20
65203;HTU21D;51788;45.124;38.966;2022-12-18T06:09:15;15.03;66.19
65203;HTU21D;51788;45.124;38.966;2022-12-18T06:11:41;15.04;66.12
65203;HTU21D;51788;45.124;38.966;2022-12-18T06:14:08;15.06;66.27
65203;HTU21D;51788;45.124;38.966;2022-12-18T06:16:35;15.12;66.12
65203;HTU21D;51788;45.124;38.966;2022-12-18T06:19:03;15.16;66.20
65203;HTU21D;51788;45.124;38.966;2022-12-18T06:21:30;15.15;66.32
65203;HTU21D;51788;45.124;38.966;2022-12-18T06:23:56;15.16;66.41
65203;HTU21D;51788;45.124;38.966;2022-12-18T06:26:22;15.19;66.17
65203;HTU21D;51788;45.124;38.966;2022-12-18T06:28:49;15.26;65.93
65203;HTU21D;51788;45.124;38.966;2022-12-18T06:31:15;15.31;65.79
65203;HTU21D;51788;45.124;38.966;2022-12-18T06:33:41;15.32;65.72
65203;HTU21D;51788;45.124;38.966;2022-12-18T06:36:10;15.33;65.58
65203;HTU21D;51788;45.124;38.966;2022-12-18T06:38:39;15.37;65.22
65203;HTU21D;51788;45.124;38.966;2022-12-18T06:41:14;15.37;65.28
65203;HTU21D;51788;45.124;38.966;2022-12-18T06:43:41;15.34;65.34
65203;HTU21D;51788;45.124;38.966;2022-12-18T06:46:07;15.34;64.96
65203;HTU21D;51788;45.124;38.966;2022-12-18T06:48:34;15.36;64.62
65203;HTU21D;51788;45.124;38.966;2022-12-18T06:51:00;15.40;64.43
65203;HTU21D;51788;45.124;38.966;2022-12-18T06:53:27;15.38;64.38
65203;HTU21D;51788;45.124;38.966;2022-12-18T06:55:59;15.36;64.24
65203;HTU21D;51788;45.124;38.966;2022-12-18T06:58:25;15.38;64.17
65203;HTU21D;51788;45.124;38.966;2022-12-18T07:00:51;15.38;63.97
65203;HTU21D;51788;45.124;38.966;2022-12-18T07:03:17;15.32;64.34
65203;HTU21D;51788;45.124;38.966;2022-12-18T07:05:43;15.28;64.32
65203;HTU21D;51788;45.124;38.966;2022-12-18T07:08:09;15.24;64.48
65203;HTU21D;51788;45.124;38.966;2022-12-18T07:10:41;15.21;64.34
65203;HTU21D;51788;45.124;38.966;2022-12-18T07:13:07;15.17;64.50
65203;HTU21D;51788;45.124;38.966;2022-12-18T07:15:33;15.22;64.45
65203;HTU21D;51788;45.124;38.966;2022-12-18T07:17:59;15.25;64.11
65203;HTU21D;51788;45.124;38.966;2022-12-18T07:20:25;15.28;64.08
65203;HTU21D;51788;45.124;38.966;2022-12-18T07:22:51;15.34;64.08
65203;HTU21D;51788;45.124;38.966;2022-12-18T07:25:17;15.41;63.57
65203;HTU21D;51788;45.124;38.966;2022-12-18T07:27:43;15.44;63.58
65203;HTU21D;51788;45.124;38.966;2022-12-18T07:30:09;15.46;63.47
65203;HTU21D;51788;45.124;38.966;2022-12-18T07:32:36;15.47;63.21
65203;HTU21D;51788;45.124;38.966;2022-12-18T07:35:02;15.49;63.08
65203;HTU21D;51788;45.124;38.966;2022-12-18T07:37:28;15.53;62.96
65203;HTU21D;51788;45.124;38.966;2022-12-18T07:39:53;15.56;62.89
65203;HTU21D;51788;45.124;38.966;2022-12-18T07:42:19;15.65;62.67
65203;HTU21D;51788;45.124;38.966;2022-12-18T07:45:01;15.70;62.44
65203;HTU21D;51788;45.124;38.966;2022-12-18T07:47:28;15.74;62.48
65203;HTU21D;51788;45.124;38.966;2022-12-18T07:49:54;15.80;62.55
65203;HTU21D;51788;45.124;38.966;2022-12-18T07:52:20;15.85;62.47
65203;HTU21D;51788;45.124;38.966;2022-12-18T07:54:47;15.93;62.11
65203;HTU21D;51788;45.124;38.966;2022-12-18T07:57:16;16.02;61.87
65203;HTU21D;51788;45.124;38.966;2022-12-18T07:59:42;16.08;61.95
65203;HTU21D;51788;45.124;38.966;2022-12-18T08:02:08;16.18;61.76
65203;HTU21D;51788;45.124;38.966;2022-12-18T08:04:34;16.34;60.76
65203;HTU21D;51788;45.124;38.966;2022-12-18T08:07:00;16.43;61.15
65203;HTU21D;51788;45.124;38.966;2022-12-18T08:09:26;16.49;60.96
65203;HTU21D;51788;45.124;38.966;2022-12-18T08:11:52;16.58;60.53
65203;HTU21D;51788;45.124;38.966;2022-12-18T08:14:18;16.65;60.53
65203;HTU21D;51788;45.124;38.966;2022-12-18T08:16:44;16.77;59.96
65203;HTU21D;51788;45.124;38.966;2022-12-18T08:19:10;16.85;59.98
65203;HTU21D;51788;45.124;38.966;2022-12-18T08:21:36;16.88;60.26
65203;HTU21D;51788;45.124;38.966;2022-12-18T08:24:03;16.94;60.06
65203;HTU21D;51788;45.124;38.966;2022-12-18T08:26:30;17.01;59.89
65203;HTU21D;51788;45.124;38.966;2022-12-18T08:28:58;17.07;59.65
65203;HTU21D;51788;45.124;38.966;2022-12-18T08:31:26;17.11;59.65
65203;HTU21D;51788;45.124;38.966;2022-12-18T08:33:53;17.17;59.81
65203;HTU21D;51788;45.124;38.966;2022-12-18T08:36:20;17.25;59.60
65203;HTU21D;51788;45.124;38.966;2022-12-18T08:38:48;17.39;59.03
65203;HTU21D;51788;45.124;38.966;2022-12-18T08:41:15;17.44;59.29
65203;HTU21D;51788;45.124;38.966;2022-12-18T08:43:42;17.50;59.08
65203;HTU21D;51788;45.124;38.966;2022-12-18T08:46:31;17.51;59.13
65203;HTU21D;51788;45.124;38.966;2022-12-18T08:48:58;17.51;59.09
65203;HTU21D;51788;45.124;38.966;2022-12-18T08:51:24;17.54;59.23
65203;HTU21D;51788;45.124;38.966;2022-12-18T08:53:49;17.58;58.58
65203;HTU21D;51788;45.124;38.966;2022-12-18T08:56:16;17.53;58.29
65203;HTU21D;51788;45.124;38.966;2022-12-18T08:58:42;17.48;58.83
65203;HTU21D;51788;45.124;38.966;2022-12-18T09:01:10;17.49;58.73
65203;HTU21D;51788;45.124;38.966;2022-12-18T09:03:37;17.52;58.89
65203;HTU21D;51788;45.124;38.966;2022-12-18T09:06:03;17.53;58.70
65203;HTU21D;51788;45.124;38.966;2022-12-18T09:08:29;17.55;58.80
65203;HTU21D;51788;45.124;38.966;2022-12-18T09:10:56;17.61;58.99
65203;HTU21D;51788;45.124;38.966;2022-12-18T09:13:22;17.64;59.19
65203;HTU21D;51788;45.124;38.966;2022-12-18T09:15:53;17.72;59.33
65203;HTU21D;51788;45.124;38.966;2022-12-18T09:18:21;17.72;59.64
65203;HTU21D;51788;45.124;38.966;2022-12-18T09:20:47;17.70;59.84
65203;HTU21D;51788;45.124;38.966;2022-12-18T09:23:13;17.67;60.09
65203;HTU21D;51788;45.124;38.966;2022-12-18T09:25:40;17.66;60.43
65203;HTU21D;51788;45.124;38.966;2022-12-18T09:28:10;17.67;60.79
65203;HTU21D;51788;45.124;38.966;2022-12-18T09:30:38;17.67;61.08
65203;HTU21D;51788;45.124;38.966;2022-12-18T09:33:04;17.64;61.38
65203;HTU21D;51788;45.124;38.966;2022-12-18T09:35:30;17.56;61.75
65203;HTU21D;51788;45.124;38.966;2022-12-18T09:37:56;17.53;62.08
65203;HTU21D;51788;45.124;38.966;2022-12-18T09:40:25;17.51;62.30
65203;HTU21D;51788;45.124;38.966;2022-12-18T09:42:58;17.48;62.50
65203;HTU21D;51788;45.124;38.966;2022-12-18T09:45:25;17.47;62.65
65203;HTU21D;51788;45.124;38.966;2022-12-18T09:47:52;17.48;62.73
65203;HTU21D;51788;45.124;38.966;2022-12-18T09:50:33;17.50;62.76
65203;HTU21D;51788;45.124;38.966;2022-12-18T09:53:10;17.51;62.92
65203;HTU21D;51788;45.124;38.966;2022-12-18T09:55:44;17.51;63.15
65203;HTU21D;51788;45.124;38.966;2022-12-18T09:58:14;17.51;63.27
65203;HTU21D;51788;45.124;38.966;2022-12-18T10:00:42;17.51;63.45
65203;HTU21D;51788;45.124;38.966;2022-12-18T10:03:15;17.52;63.60
65203;HTU21D;51788;45.124;38.966;2022-12-18T10:08:48;17.56;63.76
65203;HTU21D;51788;45.124;38.966;2022-12-18T10:11:27;17.47;64.08
65203;HTU21D;51788;45.124;38.966;2022-12-18T10:20:13;17.09;64.88
65203;HTU21D;51788;45.124;38.966;2022-12-18T10:22:50;17.01;65.08
65203;HTU21D;51788;45.124;38.966;2022-12-18T10:25:33;16.94;65.28
65203;HTU21D;51788;45.124;38.966;2022-12-18T10:28:10;16.82;65.65
65203;HTU21D;51788;45.124;38.966;2022-12-18T10:30:38;16.60;66.01
65203;HTU21D;51788;45.124;38.966;2022-12-18T10:33:04;16.37;66.37
65203;HTU21D;51788;45.124;38.966;2022-12-18T10:35:30;16.16;66.71
65203;HTU21D;51788;45.124;38.966;2022-12-18T10:41:00;15.87;67.20
65203;HTU21D;51788;45.124;38.966;2022-12-18T10:43:37;15.82;67.29
65203;HTU21D;51788;45.124;38.966;2022-12-18T10:51:00;15.63;67.69
65203;HTU21D;51788;45.124;38.966;2022-12-18T10:53:28;15.51;68.10
65203;HTU21D;51788;45.124;38.966;2022-12-18T10:55:58;15.38;68.49
65203;HTU21D;51788;45.124;38.966;2022-12-18T10:58:35;15.29;68.80
65203;HTU21D;51788;45.124;38.966;2022-12-18T11:03:41;15.09;69.68
65203;HTU21D;51788;45.124;38.966;2022-12-18T11:06:14;15.06;69.71
65203;HTU21D;51788;45.124;38.966;2022-12-18T11:08:43;15.04;69.89
65203;HTU21D;51788;45.124;38.966;2022-12-18T11:11:20;15.00;70.29
65203;HTU21D;51788;45.124;38.966;2022-12-18T11:14:12;14.98;70.56
65203;HTU21D;51788;45.124;38.966;2022-12-18T11:16:47;14.96;70.56
65203;HTU21D;51788;45.124;38.966;2022-12-18T11:19:20;14.96;70.60
65203;HTU21D;51788;45.124;38.966;2022-12-18T11:21:48;14.97;70.93
65203;HTU21D;51788;45.124;38.966;2022-12-18T11:26:52;14.99;71.39
65203;HTU21D;51788;45.124;38.966;2022-12-18T11:29:24;14.99;71.51
65203;HTU21D;51788;45.124;38.966;2022-12-18T11:32:19;14.92;71.93
65203;HTU21D;51788;45.124;38.966;2022-12-18T11:34:50;14.86;71.96
65203;HTU21D;51788;45.124;38.966;2022-12-18T11:37:17;14.87;72.10
65203;HTU21D;51788;45.124;38.966;2022-12-18T11:39:52;14.87;72.55
65203;HTU21D;51788;45.124;38.966;2022-12-18T11:42:32;14.87;72.74
65203;HTU21D;51788;45.124;38.966;2022-12-18T11:47:37;14.88;73.44
65203;HTU21D;51788;45.124;38.966;2022-12-18T11:50:18;14.86;74.36
65203;HTU21D;51788;45.124;38.966;2022-12-18T11:52:45;14.84;74.76
65203;HTU21D;51788;45.124;38.966;2022-12-18T11:55:16;14.78;75.43
65203;HTU21D;51788;45.124;38.966;2022-12-18T11:58:03;14.74;76.02
65203;HTU21D;51788;45.124;38.966;2022-12-18T12:00:31;14.73;76.52
65203;HTU21D;51788;45.124;38.966;2022-12-18T12:06:36;14.57;78.18
65203;HTU21D;51788;45.124;38.966;2022-12-18T12:24:24;14.20;81.68
65203;HTU21D;51788;45.124;38.966;2022-12-18T12:33:17;14.12;81.68
65203;HTU21D;51788;45.124;38.966;2022-12-18T12:35:57;14.08;82.68
65203;HTU21D;51788;45.124;38.966;2022-12-18T12:38:30;14.06;82.52
65203;HTU21D;51788;45.124;38.966;2022-12-18T12:41:02;13.99;82.76
65203;HTU21D;51788;45.124;38.966;2022-12-18T12:43:36;13.92;83.20
65203;HTU21D;51788;45.124;38.966;2022-12-18T12:46:09;13.86;83.36
65203;HTU21D;51788;45.124;38.966;2022-12-18T12:49:02;13.80;83.38
65203;HTU21D;51788;45.124;38.966;2022-12-18T12:51:32;13.75;83.26
65203;HTU21D;51788;45.124;38.966;2022-12-18T12:54:00;13.69;83.13
65203;HTU21D;51788;45.124;38.966;2022-12-18T13:02:47;13.62;83.32
65203;HTU21D;51788;45.124;38.966;2022-12-18T13:05:48;13.55;83.11
65203;HTU21D;51788;45.124;38.966;2022-12-18T13:08:28;13.51;83.01
65203;HTU21D;51788;45.124;38.966;2022-12-18T13:10:57;13.44;83.00
65203;HTU21D;51788;45.124;38.966;2022-12-18T13:13:50;13.33;83.34
65203;HTU21D;51788;45.124;38.966;2022-12-18T13:16:19;13.25;83.33
65203;HTU21D;51788;45.124;38.966;2022-12-18T13:18:51;13.20;83.42
65203;HTU21D;51788;45.124;38.966;2022-12-18T13:21:44;13.17;83.78
65203;HTU21D;51788;45.124;38.966;2022-12-18T13:24:30;13.07;83.79
65203;HTU21D;51788;45.124;38.966;2022-12-18T13:26:56;12.99;84.05
65203;HTU21D;51788;45.124;38.966;2022-12-18T13:29:42;12.90;84.43
65203;HTU21D;51788;45.124;38.966;2022-12-18T13:32:22;12.80;84.19
65203;HTU21D;51788;45.124;38.966;2022-12-18T13:35:06;12.65;84.03
65203;HTU21D;51788;45.124;38.966;2022-12-18T13:37:51;12.25;85.05
65203;HTU21D;51788;45.124;38.966;2022-12-18T13:43:57;12.10;85.96
65203;HTU21D;51788;45.124;38.966;2022-12-18T13:46:29;11.92;85.23
65203;HTU21D;51788;45.124;38.966;2022-12-18T13:51:30;11.68;85.52
65203;HTU21D;51788;45.124;38.966;2022-12-18T13:54:04;11.61;85.75
65203;HTU21D;51788;45.124;38.966;2022-12-18T13:56:33;11.55;85.86
65203;HTU21D;51788;45.124;38.966;2022-12-18T14:01:34;11.41;86.09
65203;HTU21D;51788;45.124;38.966;2022-12-18T14:07:14;11.18;86.35
65203;HTU21D;51788;45.124;38.966;2022-12-18T14:09:46;11.13;86.58
65203;HTU21D;51788;45.124;38.966;2022-12-18T14:12:47;11.12;87.12
65203;HTU21D;51788;45.124;38.966;2022-12-18T14:20:28;10.86;86.87
65203;HTU21D;51788;45.124;38.966;2022-12-18T14:22:55;10.81;86.74
65203;HTU21D;51788;45.124;38.966;2022-12-18T14:25:24;10.75;86.74
65203;HTU21D;51788;45.124;38.966;2022-12-18T14:27:53;10.75;86.91
65203;HTU21D;51788;45.124;38.966;2022-12-18T14:30:28;10.67;86.79
65203;HTU21D;51788;45.124;38.966;2022-12-18T14:35:37;10.28;87.19
65203;HTU21D;51788;45.124;38.966;2022-12-18T14:38:23;10.25;87.54
65203;HTU21D;51788;45.124;38.966;2022-12-18T14:41:03;10.12;87.52
65203;HTU21D;51788;45.124;38.966;2022-12-18T14:43:34;10.00;87.55
65203;HTU21D;51788;45.124;38.966;2022-12-18T14:46:02;9.97;87.72
65203;HTU21D;51788;45.124;38.966;2022-12-18T14:48:38;9.93;87.64
65203;HTU21D;51788;45.124;38.966;2022-12-18T14:53:44;9.80;87.76
65203;HTU21D;51788;45.124;38.966;2022-12-18T14:56:20;9.85;88.06
65203;HTU21D;51788;45.124;38.966;2022-12-18T14:58:54;9.86;88.08
65203;HTU21D;51788;45.124;38.966;2022-12-18T15:01:33;9.80;87.87
65203;HTU21D;51788;45.124;38.966;2022-12-18T15:04:01;9.79;87.71
65203;HTU21D;51788;45.124;38.966;2022-12-18T15:06:37;9.75;87.52
65203;HTU21D;51788;45.124;38.966;2022-12-18T15:09:22;9.70;87.92
65203;HTU21D;51788;45.124;38.966;2022-12-18T15:11:48;9.71;87.40
65203;HTU21D;51788;45.124;38.966;2022-12-18T15:14:33;9.61;87.32
65203;HTU21D;51788;45.124;38.966;2022-12-18T15:17:02;9.62;87.07
65203;HTU21D;51788;45.124;38.966;2022-12-18T15:19:48;9.59;86.99
65203;HTU21D;51788;45.124;38.966;2022-12-18T15:22:35;9.53;87.06
65203;HTU21D;51788;45.124;38.966;2022-12-18T15:25:19;9.53;87.06
65203;HTU21D;51788;45.124;38.966;2022-12-18T15:27:48;9.52;86.96
65203;HTU21D;51788;45.124;38.966;2022-12-18T15:30:20;9.34;86.83
65203;HTU21D;51788;45.124;38.966;2022-12-18T15:32:47;9.24;87.17
65203;HTU21D;51788;45.124;38.966;2022-12-18T15:35:18;9.30;87.22
65203;HTU21D;51788;45.124;38.966;2022-12-18T15:37:44;9.18;87.23
65203;HTU21D;51788;45.124;38.966;2022-12-18T15:40:18;9.14;87.38
65203;HTU21D;51788;45.124;38.966;2022-12-18T15:42:45;9.16;87.31
65203;HTU21D;51788;45.124;38.966;2022-12-18T15:45:30;9.14;87.15
65203;HTU21D;51788;45.124;38.966;2022-12-18T15:47:56;9.07;87.12
65203;HTU21D;51788;45.124;38.966;2022-12-18T15:50:22;9.04;87.22
65203;HTU21D;51788;45.124;38.966;2022-12-18T15:52:51;9.06;87.35
65203;HTU21D;51788;45.124;38.966;2022-12-18T15:55:22;8.94;87.42
65203;HTU21D;51788;45.124;38.966;2022-12-18T15:58:08;8.88;87.48
65203;HTU21D;51788;45.124;38.966;2022-12-18T16:00:37;8.79;87.38
65203;HTU21D;51788;45.124;38.966;2022-12-18T16:03:04;8.64;87.53
65203;HTU21D;51788;45.124;38.966;2022-12-18T16:05:30;8.63;87.65
65203;HTU21D;51788;45.124;38.966;2022-12-18T16:07:57;8.62;87.54
65203;HTU21D;51788;45.124;38.966;2022-12-18T16:10:24;8.48;87.51
65203;HTU21D;51788;45.124;38.966;2022-12-18T16:12:52;8.39;87.64
65203;HTU21D;51788;45.124;38.966;2022-12-18T16:15:18;8.38;87.66
65203;HTU21D;51788;45.124;38.966;2022-12-18T16:17:46;8.33;87.32
65203;HTU21D;51788;45.124;38.966;2022-12-18T16:20:17;8.26;87.40
65203;HTU21D;51788;45.124;38.966;2022-12-18T16:22:44;8.28;87.32
65203;HTU21D;51788;45.124;38.966;2022-12-18T16:25:23;8.30;87.17
65203;HTU21D;51788;45.124;38.966;2022-12-18T16:27:50;8.26;86.96
65203;HTU21D;51788;45.124;38.966;2022-12-18T16:30:21;8.21;86.95
65203;HTU21D;51788;45.124;38.966;2022-12-18T16:32:47;8.18;86.97
65203;HTU21D;51788;45.124;38.966;2022-12-18T16:35:14;7.91;86.63
65203;HTU21D;51788;45.124;38.966;2022-12-18T16:37:41;7.75;87.35
65203;HTU21D;51788;45.124;38.966;2022-12-18T16:40:10;7.72;87.41
65203;HTU21D;51788;45.124;38.966;2022-12-18T16:42:38;7.61;87.50
65203;HTU21D;51788;45.124;38.966;2022-12-18T16:45:06;7.37;87.42
65203;HTU21D;51788;45.124;38.966;2022-12-18T16:47:32;7.34;87.86
65203;HTU21D;51788;45.124;38.966;2022-12-18T16:49:58;7.52;87.84
65203;HTU21D;51788;45.124;38.966;2022-12-18T16:52:24;7.58;87.38
65203;HTU21D;51788;45.124;38.966;2022-12-18T16:54:51;7.58;87.24
65203;HTU21D;51788;45.124;38.966;2022-12-18T16:57:18;7.41;87.38
65203;HTU21D;51788;45.124;38.966;2022-12-18T16:59:45;7.26;87.55
65203;HTU21D;51788;45.124;38.966;2022-12-18T17:02:25;7.27;87.77
65203;HTU21D;51788;45.124;38.966;2022-12-18T17:04:56;7.37;87.70
65203;HTU21D;51788;45.124;38.966;2022-12-18T17:07:23;7.43;87.61
65203;HTU21D;51788;45.124;38.966;2022-12-18T17:09:49;7.53;87.34
65203;HTU21D;51788;45.124;38.966;2022-12-18T17:12:17;7.52;87.49
65203;HTU21D;51788;45.124;38.966;2022-12-18T17:14:42;7.50;87.41